createdAt,value
2018-04-17T00:01:45.733Z,7.03
2018-04-17T00:04:12.480Z,6.68
2018-04-17T00:06:39.619Z,5.90
2018-04-17T00:09:06.596Z,5.78
2018-04-17T00:11:33.356Z,6.80
2018-04-17T00:14:00.105Z,6.28
2018-04-17T00:16:30.942Z,6.43
2018-04-17T00:18:57.693Z,6.28
2018-04-17T00:21:24.568Z,6.18
2018-04-17T00:23:52.189Z,6.20
2018-04-17T00:26:19.550Z,6.68
2018-04-17T00:28:46.761Z,6.82
2018-04-17T00:31:18.565Z,6.62
2018-04-17T00:33:45.523Z,6.55
2018-04-17T00:36:13.235Z,6.82
2018-04-17T00:38:40.053Z,6.72
2018-04-17T00:41:07.408Z,6.55
2018-04-17T00:43:34.276Z,6.82
2018-04-17T00:46:01.126Z,6.93
2018-04-17T00:48:28.861Z,7.87
2018-04-17T00:50:57.245Z,7.60
2018-04-17T00:53:30.142Z,7.25
2018-04-17T00:55:56.903Z,6.07
2018-04-17T00:58:23.865Z,6.35
2018-04-17T01:00:50.766Z,6.32
2018-04-17T01:03:17.710Z,7.07
2018-04-17T01:05:45.124Z,7.78
2018-04-17T01:08:12.035Z,7.40
2018-04-17T01:10:40.043Z,8.00
2018-04-17T01:13:07.113Z,7.00
2018-04-17T01:15:34.075Z,6.70
2018-04-17T01:18:00.791Z,6.45
2018-04-17T01:20:28.171Z,7.20
2018-04-17T01:22:56.521Z,7.03
2018-04-17T01:25:23.689Z,7.55
2018-04-17T01:27:50.815Z,7.93
2018-04-17T01:30:17.784Z,8.02
2018-04-17T01:32:45.797Z,8.73
2018-04-17T01:35:13.067Z,7.95
2018-04-17T01:37:41.410Z,8.65
2018-04-17T01:40:08.388Z,7.20
2018-04-17T01:42:35.581Z,7.43
2018-04-17T01:45:03.242Z,8.30
2018-04-17T01:47:30.566Z,7.97
2018-04-17T01:49:57.893Z,7.75
2018-04-17T01:52:24.613Z,7.57
2018-04-17T01:54:51.397Z,7.25
2018-04-17T01:57:18.110Z,7.68
2018-04-17T01:59:44.877Z,7.35
2018-04-17T02:02:11.727Z,8.25
2018-04-17T02:04:38.504Z,6.70
2018-04-17T02:07:05.263Z,7.22
2018-04-17T02:09:32.022Z,8.18
2018-04-17T02:11:59.007Z,8.30
2018-04-17T02:14:26.256Z,7.80
2018-04-17T02:16:53.012Z,7.22
2018-04-17T02:19:19.941Z,7.82
2018-04-17T02:21:46.731Z,7.37
2018-04-17T02:24:14.604Z,6.72
2018-04-17T02:26:41.360Z,7.20
2018-04-17T02:29:08.109Z,7.87
2018-04-17T02:31:34.897Z,7.90
2018-04-17T02:34:01.807Z,9.00
2018-04-17T02:36:28.655Z,8.80
2018-04-17T02:38:55.351Z,8.15
2018-04-17T02:41:22.409Z,9.60
2018-04-17T02:43:49.277Z,7.22
2018-04-17T02:46:16.171Z,7.40
2018-04-17T02:48:43.062Z,8.77
2018-04-17T02:51:10.405Z,9.07
2018-04-17T02:53:37.671Z,9.98
2018-04-17T02:56:04.435Z,9.20
2018-04-17T02:58:31.386Z,7.80
2018-04-17T03:00:58.212Z,7.32
2018-04-17T03:03:24.931Z,7.60
2018-04-17T03:05:51.696Z,7.90
2018-04-17T03:08:18.460Z,7.82
2018-04-17T03:10:45.287Z,7.68
2018-04-17T03:13:12.344Z,7.53
2018-04-17T03:15:39.890Z,7.37
2018-04-17T03:18:09.630Z,8.43
2018-04-17T03:20:36.428Z,8.98
2018-04-17T03:23:03.207Z,8.70
2018-04-17T03:25:29.972Z,9.35
2018-04-17T03:27:56.750Z,9.40
2018-04-17T03:30:23.512Z,8.82
2018-04-17T03:32:50.304Z,9.68
2018-04-17T03:35:17.168Z,8.73
2018-04-17T03:37:43.905Z,10.68
2018-04-17T03:40:10.589Z,9.50
2018-04-17T03:42:37.451Z,9.48
2018-04-17T03:45:04.972Z,8.50
2018-04-17T03:47:31.804Z,9.48
2018-04-17T03:49:58.604Z,7.72
2018-04-17T03:52:25.399Z,9.00
2018-04-17T03:54:52.268Z,9.38
2018-04-17T03:57:19.022Z,8.90
2018-04-17T03:59:45.936Z,9.38
2018-04-17T04:02:12.732Z,9.15
2018-04-17T04:04:40.239Z,9.52
2018-04-17T04:07:06.964Z,8.30
2018-04-17T04:09:33.892Z,8.70
2018-04-17T04:12:00.942Z,9.77
2018-04-17T04:14:27.686Z,9.57
2018-04-17T04:17:00.474Z,8.50
2018-04-17T04:19:33.176Z,8.93
2018-04-17T04:22:07.455Z,9.32
2018-04-17T04:24:40.375Z,9.52
2018-04-17T04:27:08.056Z,9.82
2018-04-17T04:29:34.784Z,9.68
2018-04-17T04:32:01.569Z,10.55
2018-04-17T04:34:28.436Z,10.93
2018-04-17T04:36:55.292Z,9.40
2018-04-17T04:39:22.111Z,9.88
2018-04-17T04:41:48.851Z,10.43
2018-04-17T04:44:16.235Z,9.30
2018-04-17T04:46:43.187Z,9.27
2018-04-17T04:49:09.971Z,10.30
2018-04-17T04:51:37.132Z,9.95
2018-04-17T04:54:04.059Z,10.35
2018-04-17T04:56:30.879Z,10.57
2018-04-17T04:58:57.595Z,9.60
2018-04-17T05:01:24.283Z,9.95
2018-04-17T05:03:51.067Z,9.30
2018-04-17T05:06:17.957Z,9.95
2018-04-17T05:08:44.926Z,10.30
2018-04-17T05:11:12.041Z,9.52
2018-04-17T05:13:38.889Z,10.32
2018-04-17T05:16:05.600Z,9.52
2018-04-17T05:18:32.428Z,11.55
2018-04-17T05:20:59.644Z,9.90
2018-04-17T05:23:26.460Z,9.23
2018-04-17T05:25:53.283Z,10.20
2018-04-17T05:28:20.564Z,9.13
2018-04-17T05:30:47.769Z,9.82
2018-04-17T05:33:14.556Z,8.57
2018-04-17T05:35:41.400Z,10.07
2018-04-17T05:38:10.248Z,10.88
2018-04-17T05:40:37.053Z,9.52
2018-04-17T05:43:03.857Z,9.90
2018-04-17T05:45:30.682Z,10.40
2018-04-17T05:47:57.509Z,9.88
2018-04-17T05:50:24.311Z,11.50
2018-04-17T05:52:51.179Z,11.80
2018-04-17T05:55:18.087Z,9.75
2018-04-17T05:57:45.600Z,10.27
2018-04-17T06:00:12.585Z,8.82
2018-04-17T06:02:39.369Z,10.23
2018-04-17T06:05:06.253Z,10.15
2018-04-17T06:07:33.615Z,11.15
2018-04-17T06:10:04.754Z,11.57
2018-04-17T06:12:31.614Z,11.55
2018-04-17T06:14:58.549Z,12.75
2018-04-17T06:17:25.398Z,11.80
2018-04-17T06:19:52.209Z,12.57
2018-04-17T06:22:18.921Z,12.95
2018-04-17T06:24:45.873Z,13.40
2018-04-17T06:27:12.628Z,12.57
2018-04-17T06:29:39.354Z,14.02
2018-04-17T06:32:06.217Z,13.13
2018-04-17T06:34:33.032Z,13.65
2018-04-17T06:36:59.830Z,13.55
2018-04-17T06:39:26.480Z,14.45
2018-04-17T06:41:53.476Z,14.45
2018-04-17T06:44:20.195Z,17.27
2018-04-17T06:46:46.928Z,18.00
2018-04-17T06:49:13.845Z,18.83
2018-04-17T06:51:40.617Z,18.63
2018-04-17T06:54:07.312Z,16.57
2018-04-17T06:56:34.376Z,16.97
2018-04-17T06:59:01.060Z,999.90
2018-04-17T07:01:27.737Z,999.90
2018-04-17T07:03:54.442Z,999.90
2018-04-17T07:06:21.221Z,999.90
2018-04-17T07:08:48.010Z,672.70
2018-04-17T07:11:14.802Z,17.50
2018-04-17T07:13:41.477Z,15.27
2018-04-17T07:16:08.515Z,13.57
2018-04-17T07:18:35.210Z,16.13
2018-04-17T07:21:02.511Z,15.27
2018-04-17T07:23:29.770Z,17.97
2018-04-17T07:25:56.511Z,16.27
2018-04-17T07:28:23.380Z,17.47
2018-04-17T07:30:50.121Z,16.30
2018-04-17T07:33:16.876Z,16.80
2018-04-17T07:35:43.684Z,18.27
2018-04-17T07:38:10.326Z,16.93
2018-04-17T07:40:37.213Z,16.80
2018-04-17T07:43:03.828Z,15.83
2018-04-17T07:45:30.470Z,16.57
2018-04-17T07:48:02.963Z,16.30
2018-04-17T07:50:29.606Z,16.10
2018-04-17T07:52:56.248Z,16.90
2018-04-17T07:55:22.955Z,17.70
2018-04-17T07:57:49.562Z,16.20
2018-04-17T08:00:16.200Z,16.97
2018-04-17T08:02:42.816Z,17.47
2018-04-17T08:05:09.451Z,16.80
2018-04-17T08:07:36.082Z,17.00
2018-04-17T08:10:02.748Z,16.17
2018-04-17T08:12:29.356Z,17.87
2018-04-17T08:14:55.978Z,15.97
2018-04-17T08:17:22.613Z,17.37
2018-04-17T08:19:49.318Z,16.80
2018-04-17T08:22:15.919Z,17.13
2018-04-17T08:24:42.563Z,17.40
2018-04-17T08:27:09.191Z,16.40
2018-04-17T08:29:35.847Z,16.53
2018-04-17T08:32:02.457Z,17.60
2018-04-17T08:34:29.133Z,16.40
2018-04-17T08:36:55.759Z,16.40
2018-04-17T08:39:22.370Z,17.10
2018-04-17T08:41:49.006Z,15.60
2018-04-17T08:44:15.694Z,16.60
2018-04-17T08:46:42.324Z,16.63
2018-04-17T08:49:08.978Z,16.43
2018-04-17T08:51:35.618Z,16.07
2018-04-17T08:54:02.257Z,15.87
2018-04-17T08:56:28.882Z,15.77
2018-04-17T08:58:55.503Z,15.43
2018-04-17T09:01:22.215Z,19.93
2018-04-17T09:03:48.822Z,16.00
2018-04-17T09:06:15.462Z,16.80
2018-04-17T09:08:42.093Z,16.03
2018-04-17T09:11:08.705Z,16.43
2018-04-17T09:13:35.326Z,15.93
2018-04-17T09:16:01.951Z,17.03
2018-04-17T09:18:28.578Z,14.50
2018-04-17T09:20:55.215Z,10.30
2018-04-17T09:23:21.865Z,10.57
2018-04-17T09:25:48.510Z,9.27
2018-04-17T09:28:15.139Z,10.07
2018-04-17T09:30:41.768Z,9.93
2018-04-17T09:33:08.405Z,10.37
2018-04-17T09:35:35.023Z,8.53
2018-04-17T09:38:01.663Z,10.57
2018-04-17T09:40:28.282Z,13.53
2018-04-17T09:42:54.911Z,13.30
2018-04-17T09:45:21.567Z,13.73
2018-04-17T09:47:48.215Z,12.20
2018-04-17T09:50:15.200Z,14.13
2018-04-17T09:52:41.869Z,13.47
2018-04-17T09:55:08.492Z,14.10
2018-04-17T09:57:35.175Z,13.73
2018-04-17T10:00:01.755Z,12.10
2018-04-17T10:02:28.378Z,11.53
2018-04-17T10:04:55.015Z,10.87
2018-04-17T10:07:21.648Z,12.57
2018-04-17T10:09:48.290Z,14.63
2018-04-17T10:12:14.916Z,12.53
2018-04-17T10:14:41.584Z,11.37
2018-04-17T10:17:08.189Z,13.73
2018-04-17T10:19:35.046Z,12.43
2018-04-17T10:22:01.706Z,14.80
2018-04-17T10:24:29.230Z,13.77
2018-04-17T10:27:00.372Z,14.90
2018-04-17T10:29:27.020Z,11.47
2018-04-17T10:31:53.751Z,7.50
2018-04-17T10:34:20.375Z,7.77
2018-04-17T10:36:47.045Z,7.37
2018-04-17T10:39:13.669Z,8.63
2018-04-17T10:41:40.999Z,8.10
2018-04-17T10:44:08.490Z,9.67
2018-04-17T10:46:35.230Z,10.10
2018-04-17T10:49:01.970Z,8.20
2018-04-17T10:51:32.726Z,8.43
2018-04-17T10:53:59.390Z,10.40
2018-04-17T10:56:26.023Z,8.93
2018-04-17T10:59:00.577Z,10.07
2018-04-17T11:01:27.718Z,9.67
2018-04-17T11:03:54.383Z,8.97
2018-04-17T11:06:21.030Z,8.93
2018-04-17T11:08:49.142Z,10.50
2018-04-17T11:11:15.763Z,8.20
2018-04-17T11:13:42.585Z,7.87
2018-04-17T11:16:09.206Z,6.03
2018-04-17T11:18:36.373Z,6.10
2018-04-17T11:21:03.072Z,6.40
2018-04-17T11:23:30.439Z,6.00
2018-04-17T11:25:57.115Z,6.00
2018-04-17T11:28:23.884Z,6.23
2018-04-17T11:30:53.089Z,6.37
2018-04-17T11:33:19.767Z,5.93
2018-04-17T11:35:47.574Z,7.97
2018-04-17T11:38:14.223Z,8.53
2018-04-17T11:40:40.888Z,8.03
2018-04-17T11:43:07.573Z,9.70
2018-04-17T11:45:38.323Z,9.10
2018-04-17T11:48:04.946Z,8.90
2018-04-17T11:50:31.603Z,11.30
2018-04-17T11:52:59.663Z,9.77
2018-04-17T11:55:26.338Z,10.53
2018-04-17T11:57:53.297Z,9.50
2018-04-17T12:00:19.995Z,11.13
2018-04-17T12:02:47.628Z,11.83
2018-04-17T12:05:14.317Z,10.03
2018-04-17T12:07:41.729Z,10.90
2018-04-17T12:10:08.377Z,10.50
2018-04-17T12:12:35.919Z,10.17
2018-04-17T12:15:03.514Z,9.30
2018-04-17T12:17:30.165Z,11.93
2018-04-17T12:19:57.797Z,10.03
2018-04-17T12:22:24.430Z,9.30
2018-04-17T12:24:51.729Z,9.57
2018-04-17T12:27:18.366Z,9.87
2018-04-17T12:29:44.981Z,10.60
2018-04-17T12:32:11.647Z,10.00
2018-04-17T12:34:38.290Z,12.37
2018-04-17T12:37:04.930Z,10.07
2018-04-17T12:39:31.666Z,8.67
2018-04-17T12:41:58.271Z,9.40
2018-04-17T12:44:24.916Z,9.77
2018-04-17T12:46:51.519Z,9.20
2018-04-17T12:49:18.190Z,11.30
2018-04-17T12:51:44.810Z,9.80
2018-04-17T12:54:11.483Z,10.53
2018-04-17T12:56:38.098Z,9.87
2018-04-17T12:59:04.761Z,10.70
2018-04-17T13:01:31.384Z,10.70
2018-04-17T13:03:58.054Z,10.20
2018-04-17T13:06:24.671Z,9.83
2018-04-17T13:08:51.921Z,11.00
2018-04-17T13:11:18.560Z,11.40
2018-04-17T13:13:45.213Z,10.90
2018-04-17T13:16:11.831Z,8.80
2018-04-17T13:18:38.490Z,9.10
2018-04-17T13:21:05.116Z,9.43
2018-04-17T13:23:31.777Z,9.93
2018-04-17T13:25:58.399Z,9.57
2018-04-17T13:28:25.059Z,9.20
2018-04-17T13:30:51.699Z,9.57
2018-04-17T13:33:18.350Z,9.93
2018-04-17T13:35:44.988Z,10.43
2018-04-17T13:38:11.636Z,10.37
2018-04-17T13:40:38.275Z,10.23
2018-04-17T13:43:04.927Z,9.80
2018-04-17T13:45:31.549Z,9.40
2018-04-17T13:47:58.309Z,9.30
2018-04-17T13:50:24.983Z,9.80
2018-04-17T13:52:51.619Z,10.27
2018-04-17T13:55:18.291Z,9.77
2018-04-17T13:57:44.909Z,10.33
2018-04-17T14:00:11.535Z,8.27
2018-04-17T14:02:38.172Z,8.70
2018-04-17T14:05:04.787Z,9.30
2018-04-17T14:07:31.447Z,8.37
2018-04-17T14:09:58.064Z,8.00
2018-04-17T14:12:24.738Z,8.40
2018-04-17T14:14:51.341Z,9.17
2018-04-17T14:17:18.095Z,10.03
2018-04-17T14:19:44.641Z,9.23
2018-04-17T14:22:11.286Z,10.10
2018-04-17T14:24:38.480Z,10.70
2018-04-17T14:27:05.126Z,10.00
2018-04-17T14:29:31.777Z,8.30
2018-04-17T14:31:58.386Z,9.50
2018-04-17T14:34:25.055Z,9.93
2018-04-17T14:36:51.690Z,9.77
2018-04-17T14:39:18.334Z,9.87
2018-04-17T14:41:44.960Z,8.70
2018-04-17T14:44:11.620Z,10.77
2018-04-17T14:46:38.248Z,9.93
2018-04-17T14:49:04.905Z,9.60
2018-04-17T14:51:31.524Z,8.90
2018-04-17T14:53:58.196Z,9.40
2018-04-17T14:56:24.818Z,8.77
2018-04-17T14:58:51.471Z,10.10
2018-04-17T15:01:18.171Z,9.63
2018-04-17T15:03:44.754Z,9.83
2018-04-17T15:06:11.375Z,9.73
2018-04-17T15:08:38.059Z,9.00
2018-04-17T15:11:04.659Z,9.83
2018-04-17T15:13:31.310Z,9.97
2018-04-17T15:15:57.930Z,9.20
2018-04-17T15:18:24.550Z,9.57
2018-04-17T15:20:51.206Z,10.17
2018-04-17T15:23:17.886Z,9.70
2018-04-17T15:25:44.543Z,10.10
2018-04-17T15:28:11.163Z,10.57
2018-04-17T15:30:37.829Z,9.57
2018-04-17T15:33:04.454Z,10.53
2018-04-17T15:35:31.142Z,8.93
2018-04-17T15:37:57.776Z,9.90
2018-04-17T15:40:24.422Z,8.97
2018-04-17T15:42:51.047Z,10.77
2018-04-17T15:45:17.708Z,10.73
2018-04-17T15:47:44.321Z,10.10
2018-04-17T15:50:10.951Z,9.47
2018-04-17T15:52:37.587Z,9.90
2018-04-17T15:55:04.216Z,9.83
2018-04-17T15:57:30.864Z,9.80
2018-04-17T15:59:57.500Z,10.00
2018-04-17T16:02:24.146Z,10.23
2018-04-17T16:04:50.762Z,9.10
2018-04-17T16:07:17.428Z,7.80
2018-04-17T16:09:44.044Z,9.80
2018-04-17T16:12:10.683Z,11.00
2018-04-17T16:14:37.342Z,8.67
2018-04-17T16:17:03.987Z,7.73
2018-04-17T16:19:30.600Z,9.17
2018-04-17T16:21:57.232Z,8.50
2018-04-17T16:24:23.887Z,10.97
2018-04-17T16:26:50.576Z,9.07
2018-04-17T16:29:17.218Z,9.67
2018-04-17T16:31:43.848Z,8.90
2018-04-17T16:34:10.473Z,8.50
2018-04-17T16:36:37.126Z,9.90
2018-04-17T16:39:03.796Z,10.87
2018-04-17T16:41:30.414Z,9.80
2018-04-17T16:43:57.055Z,11.20
2018-04-17T16:46:23.699Z,9.93
2018-04-17T16:48:50.339Z,9.60
2018-04-17T16:51:17.057Z,11.27
2018-04-17T16:53:43.622Z,9.77
2018-04-17T16:56:10.293Z,10.03
2018-04-17T16:58:37.691Z,9.40
2018-04-17T17:01:04.302Z,9.70
2018-04-17T17:03:30.951Z,10.07
2018-04-17T17:05:57.660Z,10.33
2018-04-17T17:08:24.338Z,10.30
2018-04-17T17:10:50.982Z,9.57
2018-04-17T17:13:19.154Z,9.33
2018-04-17T17:15:45.820Z,9.87
2018-04-17T17:18:17.600Z,9.70
2018-04-17T17:20:44.434Z,10.07
2018-04-17T17:23:14.638Z,9.63
2018-04-17T17:25:50.306Z,9.77
2018-04-17T17:28:16.985Z,10.13
2018-04-17T17:30:43.602Z,8.80
2018-04-17T17:33:10.346Z,10.13
2018-04-17T17:35:37.075Z,8.07
2018-04-17T17:38:03.809Z,9.93
2018-04-17T17:40:30.555Z,8.83
2018-04-17T17:42:57.246Z,10.70
2018-04-17T17:45:24.134Z,10.67
2018-04-17T17:47:50.863Z,14.10
2018-04-17T17:50:18.358Z,12.40
2018-04-17T17:52:45.019Z,11.83
2018-04-17T17:55:12.200Z,12.40
2018-04-17T17:57:38.880Z,12.80
2018-04-17T18:00:05.596Z,12.60
2018-04-17T18:02:32.301Z,12.70
2018-04-17T18:04:59.772Z,12.20
2018-04-17T18:07:26.943Z,12.57
2018-04-17T18:09:53.950Z,12.10
2018-04-17T18:12:24.573Z,12.20
2018-04-17T18:14:52.763Z,12.10
2018-04-17T18:17:19.472Z,13.43
2018-04-17T18:19:48.745Z,12.13
2018-04-17T18:22:16.068Z,11.70
2018-04-17T18:24:42.776Z,12.50
2018-04-17T18:27:09.444Z,11.20
2018-04-17T18:29:36.082Z,11.10
2018-04-17T18:32:03.277Z,11.93
2018-04-17T18:34:30.511Z,11.80
2018-04-17T18:37:01.354Z,12.68
2018-04-17T18:39:28.178Z,10.93
2018-04-17T18:41:55.792Z,12.25
2018-04-17T18:44:22.876Z,11.12
2018-04-17T18:46:49.973Z,10.70
2018-04-17T18:49:16.742Z,10.95
2018-04-17T18:51:43.622Z,11.55
2018-04-17T18:54:10.570Z,12.88
2018-04-17T18:56:37.527Z,11.63
2018-04-17T18:59:04.405Z,11.77
2018-04-17T19:01:31.223Z,12.75
2018-04-17T19:03:58.666Z,12.85
2018-04-17T19:06:29.608Z,10.23
2018-04-17T19:08:56.747Z,12.15
2018-04-17T19:11:24.289Z,11.50
2018-04-17T19:13:51.112Z,12.35
2018-04-17T19:16:17.996Z,11.93
2018-04-17T19:18:45.613Z,12.18
2018-04-17T19:21:12.539Z,13.60
2018-04-17T19:23:39.318Z,13.55
2018-04-17T19:26:06.107Z,13.40
2018-04-17T19:28:33.064Z,12.90
2018-04-17T19:30:59.788Z,14.45
2018-04-17T19:33:26.610Z,12.48
2018-04-17T19:35:53.487Z,14.13
2018-04-17T19:38:20.274Z,13.10
2018-04-17T19:40:47.183Z,12.13
2018-04-17T19:43:14.027Z,13.23
2018-04-17T19:45:40.952Z,12.75
2018-04-17T19:48:11.421Z,12.55
2018-04-17T19:50:38.505Z,13.85
2018-04-17T19:53:05.735Z,12.13
2018-04-17T19:55:36.237Z,12.02
2018-04-17T19:58:03.080Z,11.80
2018-04-17T20:00:30.642Z,13.10
2018-04-17T20:02:57.641Z,13.32
2018-04-17T20:05:24.471Z,13.23
2018-04-17T20:07:51.364Z,14.20
2018-04-17T20:10:18.233Z,14.43
2018-04-17T20:12:45.151Z,12.45
2018-04-17T20:15:12.268Z,12.63
2018-04-17T20:17:39.107Z,12.60
2018-04-17T20:20:06.908Z,12.40
2018-04-17T20:22:33.703Z,12.68
2018-04-17T20:25:01.188Z,11.82
2018-04-17T20:27:28.047Z,11.60
2018-04-17T20:29:55.002Z,11.50
2018-04-17T20:32:21.819Z,12.35
2018-04-17T20:34:48.927Z,11.90
2018-04-17T20:37:15.826Z,13.00
2018-04-17T20:39:42.610Z,12.82
2018-04-17T20:42:09.537Z,11.30
2018-04-17T20:44:36.902Z,14.05
2018-04-17T20:47:03.650Z,10.50
2018-04-17T20:49:30.695Z,11.98
2018-04-17T20:51:57.794Z,11.20
2018-04-17T20:54:24.709Z,11.50
2018-04-17T20:56:51.479Z,11.35
2018-04-17T20:59:18.286Z,10.95
2018-04-17T21:01:45.176Z,13.35
2018-04-17T21:04:12.170Z,11.43
2018-04-17T21:06:38.979Z,11.25
2018-04-17T21:09:06.151Z,11.73
2018-04-17T21:11:34.891Z,10.70
2018-04-17T21:14:01.714Z,12.82
2018-04-17T21:16:28.654Z,12.75
2018-04-17T21:18:55.538Z,12.27
2018-04-17T21:21:22.361Z,12.75
2018-04-17T21:23:49.216Z,11.35
2018-04-17T21:26:16.370Z,11.60
2018-04-17T21:28:43.104Z,11.60
2018-04-17T21:31:09.991Z,12.95
2018-04-17T21:33:36.855Z,10.98
2018-04-17T21:36:04.160Z,13.48
2018-04-17T21:38:31.814Z,12.95
2018-04-17T21:40:58.588Z,12.45
2018-04-17T21:43:25.795Z,12.05
2018-04-17T21:45:52.507Z,11.93
2018-04-17T21:48:19.374Z,11.75
2018-04-17T21:50:46.175Z,11.68
2018-04-17T21:53:12.995Z,12.57
2018-04-17T21:55:40.290Z,12.32
2018-04-17T21:58:07.114Z,10.85
2018-04-17T22:00:33.859Z,11.82
2018-04-17T22:03:00.764Z,12.77
2018-04-17T22:05:27.577Z,11.93
2018-04-17T22:07:54.566Z,11.60
2018-04-17T22:10:21.316Z,11.90
2018-04-17T22:12:48.263Z,12.93
2018-04-17T22:15:16.030Z,10.35
2018-04-17T22:17:42.867Z,12.10
2018-04-17T22:20:09.794Z,12.90
2018-04-17T22:22:36.613Z,13.15
2018-04-17T22:25:03.415Z,12.27
2018-04-17T22:27:30.273Z,11.20
2018-04-17T22:29:57.196Z,12.82
2018-04-17T22:32:24.135Z,12.55
2018-04-17T22:34:50.841Z,12.50
2018-04-17T22:37:17.594Z,12.40
2018-04-17T22:39:45.156Z,12.07
2018-04-17T22:42:12.018Z,12.05
2018-04-17T22:44:39.137Z,13.15
2018-04-17T22:47:06.938Z,13.45
2018-04-17T22:49:33.751Z,12.35
2018-04-17T22:52:00.590Z,12.60
2018-04-17T22:54:27.517Z,11.32
2018-04-17T22:56:54.911Z,13.50
2018-04-17T22:59:21.703Z,13.25
2018-04-17T23:01:48.586Z,13.15
2018-04-17T23:04:15.648Z,11.73
2018-04-17T23:06:42.491Z,12.35
2018-04-17T23:09:10.503Z,13.35
2018-04-17T23:11:37.304Z,13.25
2018-04-17T23:14:04.055Z,13.10
2018-04-17T23:16:31.008Z,12.73
2018-04-17T23:18:58.550Z,13.00
2018-04-17T23:21:25.441Z,13.60
2018-04-17T23:23:52.303Z,13.02
2018-04-17T23:26:19.178Z,13.60
2018-04-17T23:28:47.354Z,13.25
2018-04-17T23:31:14.516Z,12.75
2018-04-17T23:33:41.301Z,12.43
2018-04-17T23:36:10.627Z,14.20
2018-04-17T23:38:37.577Z,13.70
2018-04-17T23:41:04.587Z,12.95
2018-04-17T23:43:31.378Z,13.85
2018-04-17T23:45:58.845Z,14.90
2018-04-17T23:48:25.766Z,13.62
2018-04-17T23:50:52.731Z,13.10
2018-04-17T23:53:19.522Z,13.10
2018-04-17T23:55:46.506Z,13.65
2018-04-17T23:58:13.811Z,13.85
